Latest Weather Observations for Dubbo

IDN60801

Issued at 2:32 pm EST Saturday 22 July 2017 (issued every 30 minutes, with the page automatically refreshed every 10 minutes)

About weather observations | Map of weather stations | Latest weather observations for NSW | Other Formats
Station Details ID: 065070 Name: DUBBO AIRPORT AWS Lat: -32.22 Lon: 148.58 Height: 284.0 m
Data from the previous 72 hours. | See also: Recent months at Dubbo
Date/Time
EST
Temp
°C
App
Temp
°C
Dew
Point
°C
Rel
Hum
%
Delta-T
°C
Wind Press
QNH
hPa
Press
MSL
hPa
Rain since
9am
mm
Dir  Spd
km/h
Gust
km/h
Spd
kts
Gust
kts
22/02:30pm 16.3 10.7 -3.2 26 7.9 NW 17 22 9 12 1021.4 1021.8 0.0
22/02:00pm 16.0 11.2 -2.5 28 7.6 WNW 13 24 7 13 1021.7 1022.1 0.0
22/01:30pm 15.9 11.2 -2.1 29 7.4 NW 13 24 7 13 1022.1 1022.5 0.0
22/01:00pm 15.8 11.0 -2.2 29 7.4 WNW 13 22 7 12 1022.4 1022.8 0.0
22/12:30pm 15.7 10.7 -0.9 32 7.0 NW 15 28 8 15 1023.0 1023.4 0.0
22/12:00pm 15.0 10.5 -0.3 35 6.5 NNW 13 19 7 10 1023.7 1024.0 0.0
22/11:30am 13.5 10.3 -0.2 39 5.8 N 6 11 3 6 1024.4 1024.8 0.0
22/11:00am 12.5 9.9 1.2 46 4.8 NNE 4 9 2 5 1024.9 1025.3 0.0
22/10:30am 9.4 6.2 0.8 55 3.6 ESE 7 11 4 6 1025.1 1025.5 0.0
22/10:00am 7.4 3.0 0.6 62 2.7 SE 13 15 7 8 1025.0 1025.4 0.0
22/09:30am 5.5 1.1 0.3 69 2.0 SE 13 17 7 9 1025.1 1025.5 0.0
22/09:00am 3.2 -0.9 -0.1 79 1.2 SE 11 13 6 7 1025.3 1025.7 0.0
22/08:30am 1.5 -3.0 -0.4 87 0.7 SSE 13 19 7 10 1025.1 1025.5 0.0
22/08:00am -0.2 -5.2 -1.5 91 0.4 SE 15 17 8 9 1024.9 1025.3 0.0
22/07:30am -3.0 -7.6 -4.0 93 0.2 SSE 11 13 6 7 1024.8 1025.2 0.0
22/07:00am -3.5 -8.5 -4.5 93 0.2 SE 13 15 7 8 1024.2 1024.6 0.0
22/06:30am -3.9 -9.0 -5.0 92 0.2 SE 13 15 7 8 1024.0 1024.4 0.0
22/06:00am -3.5 -8.2 -4.8 91 0.3 SE 11 13 6 7 1023.7 1024.0 0.0
22/05:30am -2.6 -7.5 -3.7 92 0.2 SSE 13 15 7 8 1023.5 1023.8 0.0
22/05:00am -2.9 -7.5 -3.9 93 0.2 ESE 11 13 6 7 1023.2 1023.6 0.0
22/04:30am -3.4 -8.1 -4.8 90 0.3 SE 11 13 6 7 1023.1 1023.5 0.0
22/04:00am -2.4 -6.9 -3.4 93 0.2 SE 11 13 6 7 1023.4 1023.7 0.0
22/03:30am -2.7 -6.9 -3.5 94 0.1 E 9 9 5 5 1023.5 1023.8 0.0
22/03:00am -2.1 -6.2 -3.4 91 0.3 ESE 9 11 5 6 1023.4 1023.7 0.0
22/02:30am -1.4 -5.1 -3.0 89 0.5 E 7 9 4 5 1023.8 1024.1 0.0
22/02:00am -0.3 -3.8 -2.5 85 0.7 ESE 6 9 3 5 1023.5 1023.8 0.0
22/01:30am 0.7 -2.2 -1.4 86 0.8 SE 4 9 2 5 1023.2 1023.6 0.0
22/01:00am 1.2 -2.6 -0.9 86 0.8 SSE 9 11 5 6 1023.6 1023.9 0.0
22/12:30am 1.1 -2.7 -0.8 87 0.7 SE 9 11 5 6 1023.6 1023.9 0.0
22/12:00am 1.0 -1.9 -1.1 86 0.7 ESE 4 7 2 4 1023.7 1024.0 0.0
 
Date/Time
EST
Temp
°C
App
Temp
°C
Dew
Point
°C
Rel
Hum
%
Delta-T
°C
Wind Press
QNH
hPa
Press
MSL
hPa
Rain since
9am
mm
Dir  Spd
km/h
Gust
km/h
Spd
kts
Gust
kts
21/11:30pm 1.7 -1.6 -0.9 83 0.9 S 6 13 3 7 1023.8 1024.1 0.0
21/11:00pm 2.3 -1.1 -0.8 80 1.1 E 7 11 4 6 1023.4 1023.7 0.0
21/10:30pm 2.9 -0.5 -0.7 77 1.3 S 7 13 4 7 1023.9 1024.2 0.0
21/10:00pm 3.4 -2.1 0.5 81 1.1 SE 19 20 10 11 1023.5 1023.8 0.0
21/09:30pm 1.5 -3.1 -3.7 68 1.8 SSE 11 15 6 8 1023.5 1023.8 0.0
21/09:00pm 3.3 -0.1 -0.9 74 1.5 E 7 9 4 5 1023.6 1023.9 0.0
21/08:30pm 5.9 1.9 0.3 67 2.2 SSW 11 11 6 6 1023.2 1023.6 0.0
21/08:00pm 6.7 3.7 0.6 65 2.4 W 6 7 3 4 1023.1 1023.5 0.0
21/07:30pm 6.6 4.3 0.1 63 2.6 SW 2 6 1 3 1022.9 1023.3 0.0
21/07:00pm 6.4 4.3 -0.8 60 2.8 CALM 0 6 0 3 1022.6 1023.0 0.0
21/06:30pm 9.7 6.6 0.1 51 3.9 SW 6 7 3 4 1022.2 1022.6 0.0
21/06:00pm 9.5 5.4 -0.4 50 4.0 WSW 11 13 6 7 1022.0 1022.4 0.0
21/05:30pm 10.0 5.8 -0.8 47 4.3 WSW 11 15 6 8 1021.8 1022.2 0.0
21/05:00pm 13.3 10.0 -1.4 36 6.0 WSW 6 13 3 7 1021.7 1022.1 0.0
21/04:30pm 15.0 11.4 -2.4 30 7.1 S 7 13 4 7 1021.4 1021.8 0.0
21/04:00pm 15.0 11.6 -2.0 31 7.0 ESE 6 11 3 6 1021.3 1021.7 0.0
21/03:30pm 15.1 12.1 -1.9 31 7.0 SSE 4 7 2 4 1021.1 1021.5 0.0
21/03:00pm 14.8 10.5 -1.7 32 6.8 SE 11 19 6 10 1021.1 1021.5 0.0
21/02:30pm 15.2 11.4 -0.9 33 6.8 SSE 9 17 5 9 1021.0 1021.4 0.0
21/02:00pm 14.2 10.3 -1.4 34 6.4 S 9 15 5 8 1021.5 1021.9 0.0
21/01:30pm 14.2 10.3 -1.4 34 6.4 SSW 9 17 5 9 1021.4 1021.8 0.0
21/01:00pm 13.8 10.0 -0.6 37 6.0 S 9 19 5 10 1021.6 1022.0 0.0
21/12:30pm 12.5 8.4 -0.4 41 5.4 S 11 20 6 11 1022.2 1022.6 0.0
21/12:00pm 11.9 7.7 -0.6 42 5.1 SSE 11 20 6 11 1022.5 1022.9 0.0
21/11:30am 12.1 7.7 0.5 45 4.9 SSE 13 19 7 10 1023.0 1023.4 0.0
21/11:00am 10.4 6.0 0.2 49 4.2 SSE 13 17 7 9 1023.4 1023.7 0.0
21/10:30am 8.9 5.5 1.6 60 3.1 SE 9 17 5 9 1023.4 1023.7 0.0
21/10:00am 7.0 2.7 1.3 67 2.3 SSE 13 19 7 10 1023.2 1023.6 0.0
21/09:30am 5.4 1.1 1.3 75 1.6 SSE 13 19 7 10 1023.0 1023.4 0.0
21/09:00am 4.2 0.7 1.4 82 1.1 ESE 9 13 5 7 1022.8 1023.2 0.0
21/08:30am 2.8 -1.1 1.2 89 0.6 SSE 11 17 6 9 1022.2 1022.6 0.0
21/08:00am 1.1 -0.8 0.5 96 0.2 CALM 0 0 0 0 1022.1 1022.5 0.0
21/07:30am -1.0 -4.3 -1.6 96 0.2 SSE 6 7 3 4 1022.0 1022.4 0.0
21/07:09am -1.4 -4.1 -2.1 95 0.2 ENE 2 7 1 4 1022.1 1022.5 0.0
21/07:00am -1.2 -4.6 -1.9 95 0.2 NE 6 7 3 4 1022.1 1022.5 0.0
21/06:50am -1.9 -5.4 -2.7 94 0.2 NNE 6 7 3 4 1022.1 1022.5 0.0
21/06:30am -1.4 -5.0 -2.2 94 0.2 WSW 7 9 4 5 1021.8 1022.2 0.0
21/06:00am -1.7 -5.4 -2.8 92 0.3 SW 7 9 4 5 1021.5 1021.9 0.0
21/05:30am -0.7 -4.2 -1.5 94 0.2 S 7 9 4 5 1020.9 1021.2 0.0
21/05:00am -0.5 -4.0 -1.5 93 0.3 SE 7 11 4 6 1020.4 1020.7 0.0
21/04:30am -0.1 -2.3 -1.4 91 0.5 CALM 0 0 0 0 1020.2 1020.5 0.0
21/04:00am -0.2 -2.4 -1.8 89 0.6 CALM 0 6 0 3 1020.1 1020.4 0.0
21/03:30am 1.1 -3.1 -0.7 88 0.7 SSE 11 13 6 7 1020.0 1020.3 0.0
21/03:00am 1.3 -3.6 -0.5 88 0.7 SSE 15 17 8 9 1020.0 1020.3 0.0
21/02:30am 2.3 -2.1 0.2 86 0.8 SSE 13 17 7 9 1020.0 1020.3 0.0
21/02:00am 2.2 -1.9 -0.1 85 0.9 SSE 11 13 6 7 1020.2 1020.5 0.0
21/01:30am 3.5 0.3 0.7 82 1.1 SSE 7 9 4 5 1020.3 1020.6 0.0
21/01:00am 3.2 -0.5 0.1 80 1.2 SW 9 9 5 5 1020.2 1020.5 0.0
21/12:30am 4.1 0.8 0.3 76 1.5 WSW 7 9 4 5 1020.4 1020.7 0.0
21/12:00am 3.1 -1.0 -0.2 79 1.2 W 11 13 6 7 1020.4 1020.7 0.0
 
Date/Time
EST
Temp
°C
App
Temp
°C
Dew
Point
°C
Rel
Hum
%
Delta-T
°C
Wind Press
QNH
hPa
Press
MSL
hPa
Rain since
9am
mm
Dir  Spd
km/h
Gust
km/h
Spd
kts
Gust
kts
20/11:30pm 5.6 2.1 1.0 72 1.8 WSW 9 9 5 5 1020.5 1020.8 0.0
20/11:00pm 5.7 1.8 1.1 72 1.8 WSW 11 11 6 6 1020.4 1020.7 0.0
20/10:30pm 6.5 2.7 1.6 71 2.0 W 11 13 6 7 1020.7 1021.0 0.0
20/10:00pm 6.9 3.5 1.8 70 2.1 WNW 9 11 5 6 1020.4 1020.7 0.0
20/09:30pm 6.7 3.5 1.0 67 2.3 W 7 7 4 4 1020.3 1020.6 0.0
20/09:00pm 6.4 3.4 0.9 68 2.2 W 6 7 3 4 1020.3 1020.6 0.0
20/08:30pm 5.5 1.8 0.1 68 2.1 WSW 9 11 5 6 1020.1 1020.4 0.0
20/08:00pm 6.6 2.9 0.1 63 2.6 WSW 9 11 5 6 1019.9 1020.2 0.0
20/07:30pm 5.3 0.8 -0.3 67 2.2 WSW 13 15 7 8 1019.5 1019.9 0.0
20/07:00pm 6.4 1.9 -0.3 62 2.6 SW 13 15 7 8 1019.3 1019.7 0.0
20/06:30pm 7.5 3.4 -0.5 57 3.1 SW 11 11 6 6 1018.8 1019.2 0.0
20/06:00pm 7.9 3.8 -0.3 56 3.2 WSW 11 15 6 8 1018.1 1018.5 0.0
20/05:30pm 9.0 4.5 -0.3 52 3.7 W 13 19 7 10 1017.9 1018.2 0.0
20/05:00pm 11.3 5.5 -0.2 45 4.7 WSW 20 28 11 15 1017.8 1018.1 0.0
20/04:30pm 12.4 6.7 -0.5 41 5.3 WSW 19 30 10 16 1017.7 1018.0 0.0
20/04:00pm 13.0 7.1 -0.6 39 5.6 WSW 20 28 11 15 1017.8 1018.1 0.0
20/03:30pm 13.2 6.6 -0.4 39 5.7 WSW 24 35 13 19 1018.0 1018.3 0.0
20/03:00pm 13.2 6.2 -0.4 39 5.7 W 26 35 14 19 1018.3 1018.7 0.0
20/02:30pm 13.1 5.8 -0.2 40 5.6 WSW 28 37 15 20 1018.4 1018.8 0.0
20/02:00pm 13.4 6.4 -0.3 39 5.7 WSW 26 37 14 20 1018.6 1019.0 0.0
20/01:30pm 12.8 5.3 -1.1 38 5.7 WSW 28 35 15 19 1019.1 1019.5 0.0
20/01:00pm 13.1 6.3 0.8 43 5.3 W 26 35 14 19 1019.3 1019.7 0.0
20/12:30pm 12.0 6.0 0.8 46 4.8 W 22 35 12 19 1019.7 1020.0 0.0
20/12:00pm 12.1 7.0 0.8 46 4.8 WSW 17 28 9 15 1020.1 1020.4 0.0
20/11:30am 11.5 5.7 2.3 53 4.0 WSW 22 30 12 16 1020.5 1020.8 0.0
20/11:00am 10.3 4.9 2.4 58 3.4 SW 20 28 11 15 1020.8 1021.1 0.0
20/10:30am 9.3 4.0 2.9 64 2.8 SW 20 30 11 16 1020.8 1021.1 0.0
20/10:00am 9.3 4.1 3.7 68 2.5 WSW 20 28 11 15 1021.1 1021.5 0.0
20/09:30am 8.2 2.9 3.1 70 2.2 SW 20 30 11 16 1021.0 1021.4 0.0
20/09:05am 7.7 2.1 3.2 73 1.9 SW 22 32 12 17 1020.9 1021.2 0.0
20/09:00am 7.8 2.6 3.8 76 1.7 SW 20 28 11 15 1020.8 1021.1 0.8
20/08:30am 7.3 4.5 5.0 85 1.0 W 9 13 5 7 1020.2 1020.5 0.8
20/08:00am 6.5 3.6 4.7 88 0.8 WNW 9 15 5 8 1019.7 1020.0 0.8
20/07:31am 5.3 2.8 4.0 91 0.6 SW 6 9 3 5 1019.3 1019.7 0.8
20/07:30am 5.1 2.6 3.6 90 0.6 WSW 6 9 3 5 1019.2 1019.6 0.8
20/07:00am 4.0 0.2 1.9 86 0.8 WSW 11 15 6 8 1019.0 1019.4 0.8
20/06:37am 6.0 1.7 3.5 84 1.1 SW 15 20 8 11 1018.8 1019.2 0.8
20/06:30am 6.7 2.6 4.2 84 1.1 SW 15 20 8 11 1018.8 1019.2 0.8
20/06:00am 7.7 3.0 5.2 84 1.1 SW 19 26 10 14 1018.8 1019.2 0.8
20/05:30am 7.8 3.1 5.3 84 1.1 SSW 19 26 10 14 1018.6 1019.0 0.8
20/05:21am 7.9 1.9 5.4 84 1.1 SSW 26 39 14 21 1018.5 1018.9 0.8
20/05:20am 7.9 1.5 5.4 84 1.1 SSW 28 39 15 21 1018.5 1018.9 0.8
20/05:00am 7.9 4.0 5.4 84 1.1 SW 15 20 8 11 1018.5 1018.9 0.8
20/04:30am 8.2 4.2 5.1 81 1.4 SW 15 20 8 11 1018.3 1018.7 0.8
20/04:00am 8.8 4.6 5.7 81 1.4 SW 17 22 9 12 1018.2 1018.6 0.8
20/03:30am 8.9 4.7 5.8 81 1.4 WSW 17 24 9 13 1018.1 1018.5 0.8
20/03:00am 8.8 4.3 6.1 83 1.3 WSW 19 26 10 14 1017.7 1018.0 0.8
20/02:30am 8.0 4.1 5.5 84 1.1 SW 15 17 8 9 1017.4 1017.7 0.8
20/02:00am 9.1 4.9 5.8 80 1.5 SW 17 24 9 13 1017.6 1017.9 0.8
20/01:30am 9.5 4.1 6.2 80 1.5 WSW 24 37 13 20 1017.6 1017.9 0.8
20/01:00am 9.3 4.7 6.6 83 1.3 WSW 20 28 11 15 1017.5 1017.8 0.8
20/12:30am 9.0 4.7 7.0 87 1.0 W 19 22 10 12 1017.5 1017.8 0.8
20/12:00am 8.9 4.6 7.0 88 0.9 W 19 24 10 13 1017.6 1017.9 0.8
 
Date/Time
EST
Temp
°C
App
Temp
°C
Dew
Point
°C
Rel
Hum
%
Delta-T
°C
Wind Press
QNH
hPa
Press
MSL
hPa
Rain since
9am
mm
Dir  Spd
km/h
Gust
km/h
Spd
kts
Gust
kts
19/11:30pm 8.7 4.8 7.0 89 0.8 W 17 20 9 11 1017.6 1017.9 0.8
19/11:00pm 8.6 5.5 7.4 92 0.6 W 13 15 7 8 1017.9 1018.2 0.8
19/10:30pm 8.3 4.7 6.6 89 0.8 W 15 19 8 10 1017.8 1018.1 0.8
19/10:00pm 9.1 5.6 7.4 89 0.8 W 15 19 8 10 1017.6 1017.9 0.8
19/09:30pm 9.2 5.3 7.3 88 0.9 W 17 24 9 13 1017.5 1017.8 0.8
19/09:00pm 9.3 4.9 7.4 88 0.9 W 20 28 11 15 1017.5 1017.8 0.8
19/08:30pm 9.5 6.0 7.4 87 1.0 W 15 20 8 11 1017.5 1017.8 0.8
19/08:00pm 9.9 6.5 7.7 86 1.1 WSW 15 19 8 10 1017.4 1017.7 0.8
19/07:30pm 9.7 5.5 7.6 87 1.0 WSW 19 22 10 12 1017.1 1017.4 0.8
19/07:00pm 9.9 5.1 7.5 85 1.2 WSW 22 30 12 16 1016.7 1017.0 0.8
19/06:30pm 9.9 6.1 7.7 86 1.1 WSW 17 24 9 13 1016.3 1016.6 0.8
19/06:00pm 9.9 4.8 7.5 85 1.2 WSW 24 32 13 17 1016.0 1016.3 0.8
19/05:30pm 9.5 5.3 7.3 86 1.1 SW 19 30 10 16 1015.4 1015.8 0.8
19/05:00pm 9.8 5.4 7.6 86 1.1 WSW 20 26 11 14 1015.0 1015.3 0.6
19/04:30pm 10.1 4.1 7.0 81 1.5 WSW 28 37 15 20 1014.5 1014.8 0.6
19/04:00pm 10.9 5.6 6.6 75 2.1 WSW 24 32 13 17 1014.3 1014.6 0.6
19/03:30pm 11.3 6.7 6.6 73 2.3 WSW 20 33 11 18 1013.8 1014.1 0.6
19/03:00pm 10.2 4.4 6.4 77 1.8 W 26 43 14 23 1013.5 1013.8 0.6

Other Formats:

Comma delimited format used in spreadsheet applications
http://www.bom.gov.au/fwo/IDN60801/IDN60801.95719.axf

JavaScript Object Notation format (JSON) in row-major order
http://www.bom.gov.au/fwo/IDN60801/IDN60801.95719.json